Main page
METAR-TAF:

METAR-TAF

Airports :

Islamabad, Pakistan

Benazir Bhutto International Airport

latitude: 33-37N, longitude: 073-06E, elevation: 507 m

Current weather observation

The report was made 37 minutes ago, at 07:30 UTC
Calm wind
Temperature 22°C
Humidity 33%
Pressure 1022 hPa
Visibility: 2500 m
haze

METAR: OPRN 040730Z 00000KT 2500 HZ NSC 22/05 Q1022.8/30.20

Time: 13:07 (08:07 UTC)

Forecast

The report was made 4 hours and 37 minutes ago, at 03:30 UTC
Forecast valid from 04 at 06 UTC to 05 at 12 UTC
Wind 10 kt from the West/Northwest
Visibility: 2500 m
Scattered clouds at a height of 20000 ft
haze
Temporary
between 40 and 6/ UTC
Wind 5 kt from the North/Northwest
Visibility: 1500 m
Scattered clouds at a height of 10000 ft
haze
Temporary
from 05 at 03 UTC to 05 at 06 UTC
Wind 10 kt from the Southeast
Visibility: 1000 m
Scattered clouds at a height of 10000 ft
haze

TAF: OPRN 040330Z 0406/0512 30010KT 2500 HZ SCT200 TEMPO 406/0408 33005KT 1500 HZ SCT100 TEMPO 0503/0506 13010KT 1000 HZ SCT100

Weather observations and forecasts of more than 4000 airports (METAR and TAF reports).

The available stations are represented by yellow and red dots on the map.

Hover mouse over dot to see the name of the station.

Then click to see weather observations and forecasts.

To change the map : click on the green buttons with a black cross to zoom in, on the green button with a dash to zoom out, or on the green arrows for adjacent maps.


METAR-TAF: